sensor_id;sensor_type;location;lat;lon;timestamp;temperature;humidity
37806;DHT22;25082;50.870;0.022;2023-04-01T00:00:18;18.30;66.40
37806;DHT22;25082;50.870;0.022;2023-04-01T00:02:44;18.30;66.40
37806;DHT22;25082;50.870;0.022;2023-04-01T00:05:10;18.30;66.40
37806;DHT22;25082;50.870;0.022;2023-04-01T00:07:40;18.30;66.40
37806;DHT22;25082;50.870;0.022;2023-04-01T00:10:07;18.30;66.40
37806;DHT22;25082;50.870;0.022;2023-04-01T00:12:34;18.30;66.40
37806;DHT22;25082;50.870;0.022;2023-04-01T00:15:00;18.30;66.40
37806;DHT22;25082;50.870;0.022;2023-04-01T00:17:25;18.30;66.40
37806;DHT22;25082;50.870;0.022;2023-04-01T00:19:51;18.30;66.40
37806;DHT22;25082;50.870;0.022;2023-04-01T00:22:17;18.20;66.30
37806;DHT22;25082;50.870;0.022;2023-04-01T00:24:43;18.30;66.40
37806;DHT22;25082;50.870;0.022;2023-04-01T00:27:08;18.20;66.30
37806;DHT22;25082;50.870;0.022;2023-04-01T00:29:35;18.20;66.30
37806;DHT22;25082;50.870;0.022;2023-04-01T00:32:00;18.20;66.30
37806;DHT22;25082;50.870;0.022;2023-04-01T00:34:26;18.20;66.20
37806;DHT22;25082;50.870;0.022;2023-04-01T00:36:52;18.20;66.20
37806;DHT22;25082;50.870;0.022;2023-04-01T00:39:20;18.20;66.70
37806;DHT22;25082;50.870;0.022;2023-04-01T00:41:46;18.20;66.10
37806;DHT22;25082;50.870;0.022;2023-04-01T00:44:24;18.20;66.10
37806;DHT22;25082;50.870;0.022;2023-04-01T00:46:50;18.20;66.10
37806;DHT22;25082;50.870;0.022;2023-04-01T00:49:19;18.20;66.10
37806;DHT22;25082;50.870;0.022;2023-04-01T00:51:48;18.20;66.00
37806;DHT22;25082;50.870;0.022;2023-04-01T00:54:16;18.20;66.00
37806;DHT22;25082;50.870;0.022;2023-04-01T00:57:13;18.20;66.00
37806;DHT22;25082;50.870;0.022;2023-04-01T00:59:46;18.20;66.60
37806;DHT22;25082;50.870;0.022;2023-04-01T01:02:14;18.20;66.00
37806;DHT22;25082;50.870;0.022;2023-04-01T01:04:40;18.20;66.00
37806;DHT22;25082;50.870;0.022;2023-04-01T01:10:04;18.10;66.00
37806;DHT22;25082;50.870;0.022;2023-04-01T01:15:20;18.10;65.90
37806;DHT22;25082;50.870;0.022;2023-04-01T01:17:56;18.10;65.90
37806;DHT22;25082;50.870;0.022;2023-04-01T01:38:17;18.10;65.90
37806;DHT22;25082;50.870;0.022;2023-04-01T01:40:47;18.00;65.90
37806;DHT22;25082;50.870;0.022;2023-04-01T01:43:17;18.00;65.90
37806;DHT22;25082;50.870;0.022;2023-04-01T01:45:48;18.00;65.90
37806;DHT22;25082;50.870;0.022;2023-04-01T01:48:17;18.00;65.90
37806;DHT22;25082;50.870;0.022;2023-04-01T01:50:44;18.00;65.90
37806;DHT22;25082;50.870;0.022;2023-04-01T01:53:12;18.00;65.90
37806;DHT22;25082;50.870;0.022;2023-04-01T01:55:41;18.00;65.90
37806;DHT22;25082;50.870;0.022;2023-04-01T02:00:46;18.00;65.90
37806;DHT22;25082;50.870;0.022;2023-04-01T02:03:15;18.00;65.90
37806;DHT22;25082;50.870;0.022;2023-04-01T02:05:42;18.00;65.90
37806;DHT22;25082;50.870;0.022;2023-04-01T02:08:21;18.00;65.90
37806;DHT22;25082;50.870;0.022;2023-04-01T02:10:57;17.90;65.80
37806;DHT22;25082;50.870;0.022;2023-04-01T02:13:37;18.00;66.00
37806;DHT22;25082;50.870;0.022;2023-04-01T02:16:12;18.00;66.00
37806;DHT22;25082;50.870;0.022;2023-04-01T02:18:38;17.90;65.90
37806;DHT22;25082;50.870;0.022;2023-04-01T02:21:06;17.90;65.90
37806;DHT22;25082;50.870;0.022;2023-04-01T02:23:33;17.90;65.90
37806;DHT22;25082;50.870;0.022;2023-04-01T02:26:01;18.00;66.00
37806;DHT22;25082;50.870;0.022;2023-04-01T02:28:29;17.90;65.90
37806;DHT22;25082;50.870;0.022;2023-04-01T02:30:57;17.90;65.80
37806;DHT22;25082;50.870;0.022;2023-04-01T02:33:27;17.90;65.90
37806;DHT22;25082;50.870;0.022;2023-04-01T02:35:53;17.90;65.90
37806;DHT22;25082;50.870;0.022;2023-04-01T02:38:18;17.90;65.90
37806;DHT22;25082;50.870;0.022;2023-04-01T02:40:50;17.90;65.80
37806;DHT22;25082;50.870;0.022;2023-04-01T02:43:16;17.90;65.90
37806;DHT22;25082;50.870;0.022;2023-04-01T02:45:43;17.90;65.90
37806;DHT22;25082;50.870;0.022;2023-04-01T02:48:09;17.90;65.90
37806;DHT22;25082;50.870;0.022;2023-04-01T02:50:35;17.90;65.90
37806;DHT22;25082;50.870;0.022;2023-04-01T02:53:01;17.90;65.80
37806;DHT22;25082;50.870;0.022;2023-04-01T02:55:29;17.90;65.80
37806;DHT22;25082;50.870;0.022;2023-04-01T02:57:56;17.90;65.80
37806;DHT22;25082;50.870;0.022;2023-04-01T03:00:21;17.90;65.80
37806;DHT22;25082;50.870;0.022;2023-04-01T03:02:47;17.90;65.80
37806;DHT22;25082;50.870;0.022;2023-04-01T03:05:13;17.90;65.90
37806;DHT22;25082;50.870;0.022;2023-04-01T03:07:39;17.80;65.70
37806;DHT22;25082;50.870;0.022;2023-04-01T03:10:06;17.90;65.80
37806;DHT22;25082;50.870;0.022;2023-04-01T03:12:32;17.80;65.70
37806;DHT22;25082;50.870;0.022;2023-04-01T03:14:58;17.80;65.70
37806;DHT22;25082;50.870;0.022;2023-04-01T03:17:23;17.80;65.80
37806;DHT22;25082;50.870;0.022;2023-04-01T03:19:49;17.80;65.80
37806;DHT22;25082;50.870;0.022;2023-04-01T03:22:15;17.80;65.70
37806;DHT22;25082;50.870;0.022;2023-04-01T03:24:41;17.80;65.80
37806;DHT22;25082;50.870;0.022;2023-04-01T03:27:07;17.80;65.70
37806;DHT22;25082;50.870;0.022;2023-04-01T03:29:32;17.80;65.80
37806;DHT22;25082;50.870;0.022;2023-04-01T03:31:58;17.80;65.80
37806;DHT22;25082;50.870;0.022;2023-04-01T03:34:25;17.80;65.80
37806;DHT22;25082;50.870;0.022;2023-04-01T03:36:51;17.80;65.80
37806;DHT22;25082;50.870;0.022;2023-04-01T03:39:17;17.80;65.80
37806;DHT22;25082;50.870;0.022;2023-04-01T03:41:46;17.80;65.80
37806;DHT22;25082;50.870;0.022;2023-04-01T03:44:12;17.70;65.80
37806;DHT22;25082;50.870;0.022;2023-04-01T03:46:38;17.70;65.80
37806;DHT22;25082;50.870;0.022;2023-04-01T03:49:07;17.70;65.70
37806;DHT22;25082;50.870;0.022;2023-04-01T03:51:41;17.70;65.70
37806;DHT22;25082;50.870;0.022;2023-04-01T03:54:08;17.70;65.80
37806;DHT22;25082;50.870;0.022;2023-04-01T03:56:34;17.70;65.70
37806;DHT22;25082;50.870;0.022;2023-04-01T03:59:05;17.70;65.70
37806;DHT22;25082;50.870;0.022;2023-04-01T04:01:31;17.70;65.80
37806;DHT22;25082;50.870;0.022;2023-04-01T04:03:57;17.70;65.80
37806;DHT22;25082;50.870;0.022;2023-04-01T04:06:24;17.70;65.70
37806;DHT22;25082;50.870;0.022;2023-04-01T04:08:50;17.70;65.80
37806;DHT22;25082;50.870;0.022;2023-04-01T04:11:16;17.70;65.70
37806;DHT22;25082;50.870;0.022;2023-04-01T04:13:43;17.70;65.80
37806;DHT22;25082;50.870;0.022;2023-04-01T04:16:09;17.70;65.80
37806;DHT22;25082;50.870;0.022;2023-04-01T04:18:36;17.70;65.80
37806;DHT22;25082;50.870;0.022;2023-04-01T04:21:03;17.70;65.80
37806;DHT22;25082;50.870;0.022;2023-04-01T04:23:29;17.70;65.80
37806;DHT22;25082;50.870;0.022;2023-04-01T04:28:25;17.60;65.80
37806;DHT22;25082;50.870;0.022;2023-04-01T04:30:51;17.60;65.70
37806;DHT22;25082;50.870;0.022;2023-04-01T04:33:18;17.60;65.70
37806;DHT22;25082;50.870;0.022;2023-04-01T04:35:44;17.60;65.80
37806;DHT22;25082;50.870;0.022;2023-04-01T04:38:09;17.60;65.80
37806;DHT22;25082;50.870;0.022;2023-04-01T04:40:39;17.60;65.80
37806;DHT22;25082;50.870;0.022;2023-04-01T04:43:06;17.60;65.80
37806;DHT22;25082;50.870;0.022;2023-04-01T04:45:31;17.60;65.80
37806;DHT22;25082;50.870;0.022;2023-04-01T04:47:57;17.60;65.80
37806;DHT22;25082;50.870;0.022;2023-04-01T04:50:24;17.60;65.80
37806;DHT22;25082;50.870;0.022;2023-04-01T04:52:50;17.60;65.80
37806;DHT22;25082;50.870;0.022;2023-04-01T04:55:16;17.60;65.80
37806;DHT22;25082;50.870;0.022;2023-04-01T04:57:42;17.60;65.90
37806;DHT22;25082;50.870;0.022;2023-04-01T05:00:08;17.60;65.80
37806;DHT22;25082;50.870;0.022;2023-04-01T05:02:35;17.60;65.90
37806;DHT22;25082;50.870;0.022;2023-04-01T05:05:01;17.60;65.90
37806;DHT22;25082;50.870;0.022;2023-04-01T05:07:27;17.60;65.90
37806;DHT22;25082;50.870;0.022;2023-04-01T05:09:52;17.60;65.90
37806;DHT22;25082;50.870;0.022;2023-04-01T05:12:18;17.60;65.90
37806;DHT22;25082;50.870;0.022;2023-04-01T05:14:44;17.60;65.90
37806;DHT22;25082;50.870;0.022;2023-04-01T05:17:11;17.60;65.90
37806;DHT22;25082;50.870;0.022;2023-04-01T05:19:37;17.60;65.90
37806;DHT22;25082;50.870;0.022;2023-04-01T05:22:04;17.50;65.90
37806;DHT22;25082;50.870;0.022;2023-04-01T05:24:30;17.50;65.80
37806;DHT22;25082;50.870;0.022;2023-04-01T05:26:56;17.60;65.80
37806;DHT22;25082;50.870;0.022;2023-04-01T05:29:23;17.60;65.90
37806;DHT22;25082;50.870;0.022;2023-04-01T05:31:49;17.50;65.90
37806;DHT22;25082;50.870;0.022;2023-04-01T05:34:15;17.60;65.90
37806;DHT22;25082;50.870;0.022;2023-04-01T05:36:41;17.50;65.90
37806;DHT22;25082;50.870;0.022;2023-04-01T05:39:07;17.50;65.90
37806;DHT22;25082;50.870;0.022;2023-04-01T05:41:35;17.50;65.90
37806;DHT22;25082;50.870;0.022;2023-04-01T05:44:01;17.50;65.90
37806;DHT22;25082;50.870;0.022;2023-04-01T05:46:27;17.50;66.50
37806;DHT22;25082;50.870;0.022;2023-04-01T05:48:53;17.50;65.90
37806;DHT22;25082;50.870;0.022;2023-04-01T05:51:19;17.50;65.90
37806;DHT22;25082;50.870;0.022;2023-04-01T05:53:44;17.50;65.90
37806;DHT22;25082;50.870;0.022;2023-04-01T05:56:10;17.50;65.90
37806;DHT22;25082;50.870;0.022;2023-04-01T05:58:37;17.50;65.90
37806;DHT22;25082;50.870;0.022;2023-04-01T06:01:08;17.50;65.90
37806;DHT22;25082;50.870;0.022;2023-04-01T06:03:35;17.50;65.90
37806;DHT22;25082;50.870;0.022;2023-04-01T06:06:01;17.50;65.90
37806;DHT22;25082;50.870;0.022;2023-04-01T06:08:28;17.40;65.90
37806;DHT22;25082;50.870;0.022;2023-04-01T06:27:30;17.60;66.00
37806;DHT22;25082;50.870;0.022;2023-04-01T06:32:53;17.60;66.00
37806;DHT22;25082;50.870;0.022;2023-04-01T06:35:48;17.60;66.00
37806;DHT22;25082;50.870;0.022;2023-04-01T06:49:39;17.70;66.10
37806;DHT22;25082;50.870;0.022;2023-04-01T06:52:29;17.70;66.10
37806;DHT22;25082;50.870;0.022;2023-04-01T06:57:56;17.80;66.20
37806;DHT22;25082;50.870;0.022;2023-04-01T07:00:32;17.80;66.30
37806;DHT22;25082;50.870;0.022;2023-04-01T07:05:44;17.80;66.30
37806;DHT22;25082;50.870;0.022;2023-04-01T07:08:13;17.80;66.30
37806;DHT22;25082;50.870;0.022;2023-04-01T07:10:54;17.80;66.30
37806;DHT22;25082;50.870;0.022;2023-04-01T07:13:36;17.80;66.30
37806;DHT22;25082;50.870;0.022;2023-04-01T07:19:18;17.90;66.50
37806;DHT22;25082;50.870;0.022;2023-04-01T07:21:48;17.90;66.50
37806;DHT22;25082;50.870;0.022;2023-04-01T07:26:53;17.90;66.50
37806;DHT22;25082;50.870;0.022;2023-04-01T07:29:20;17.90;66.50
37806;DHT22;25082;50.870;0.022;2023-04-01T07:31:52;17.90;66.50
37806;DHT22;25082;50.870;0.022;2023-04-01T07:34:27;17.90;66.50
37806;DHT22;25082;50.870;0.022;2023-04-01T07:39:54;18.00;66.80
37806;DHT22;25082;50.870;0.022;2023-04-01T07:47:22;18.00;66.80
37806;DHT22;25082;50.870;0.022;2023-04-01T07:52:41;18.00;66.90
37806;DHT22;25082;50.870;0.022;2023-04-01T07:57:45;18.00;66.90
37806;DHT22;25082;50.870;0.022;2023-04-01T08:00:23;18.00;66.90
37806;DHT22;25082;50.870;0.022;2023-04-01T08:03:09;18.10;66.90
37806;DHT22;25082;50.870;0.022;2023-04-01T08:05:51;18.10;67.00
37806;DHT22;25082;50.870;0.022;2023-04-01T08:16:52;18.10;68.00
37806;DHT22;25082;50.870;0.022;2023-04-01T08:22:01;18.20;68.90
37806;DHT22;25082;50.870;0.022;2023-04-01T08:24:44;18.10;68.80
37806;DHT22;25082;50.870;0.022;2023-04-01T08:29:58;18.20;69.10
37806;DHT22;25082;50.870;0.022;2023-04-01T08:32:39;18.20;69.30
37806;DHT22;25082;50.870;0.022;2023-04-01T08:35:19;18.20;69.30
37806;DHT22;25082;50.870;0.022;2023-04-01T08:37:47;18.20;69.30
37806;DHT22;25082;50.870;0.022;2023-04-01T08:43:51;18.20;69.30
37806;DHT22;25082;50.870;0.022;2023-04-01T08:54:55;18.20;70.00
37806;DHT22;25082;50.870;0.022;2023-04-01T08:57:51;18.20;69.40
37806;DHT22;25082;50.870;0.022;2023-04-01T09:00:37;18.30;69.50
37806;DHT22;25082;50.870;0.022;2023-04-01T09:14:33;18.30;69.20
37806;DHT22;25082;50.870;0.022;2023-04-01T09:38:22;18.30;69.00
37806;DHT22;25082;50.870;0.022;2023-04-01T09:51:39;18.30;68.90
37806;DHT22;25082;50.870;0.022;2023-04-01T10:25:37;18.40;68.90
37806;DHT22;25082;50.870;0.022;2023-04-01T10:28:28;18.40;68.80
37806;DHT22;25082;50.870;0.022;2023-04-01T10:36:54;18.40;68.80
37806;DHT22;25082;50.870;0.022;2023-04-01T10:39:43;18.40;68.70
37806;DHT22;25082;50.870;0.022;2023-04-01T10:56:46;18.40;68.60
37806;DHT22;25082;50.870;0.022;2023-04-01T11:02:42;18.40;68.60
37806;DHT22;25082;50.870;0.022;2023-04-01T11:25:34;18.50;68.60
37806;DHT22;25082;50.870;0.022;2023-04-01T12:09:43;18.60;68.30
37806;DHT22;25082;50.870;0.022;2023-04-01T12:12:32;18.60;68.40
37806;DHT22;25082;50.870;0.022;2023-04-01T12:18:27;18.70;68.40
37806;DHT22;25082;50.870;0.022;2023-04-01T12:21:25;18.70;68.30
37806;DHT22;25082;50.870;0.022;2023-04-01T12:29:49;18.70;68.20
37806;DHT22;25082;50.870;0.022;2023-04-01T12:40:59;18.60;68.10
37806;DHT22;25082;50.870;0.022;2023-04-01T12:59:41;18.70;68.10
37806;DHT22;25082;50.870;0.022;2023-04-01T13:13:09;18.70;68.00
37806;DHT22;25082;50.870;0.022;2023-04-01T13:16:16;18.80;68.00
37806;DHT22;25082;50.870;0.022;2023-04-01T13:24:05;18.80;67.90
37806;DHT22;25082;50.870;0.022;2023-04-01T13:27:00;18.80;68.50
37806;DHT22;25082;50.870;0.022;2023-04-01T13:29:36;18.80;67.90
37806;DHT22;25082;50.870;0.022;2023-04-01T13:32:08;18.80;67.80
37806;DHT22;25082;50.870;0.022;2023-04-01T13:34:47;18.80;67.80
37806;DHT22;25082;50.870;0.022;2023-04-01T13:43:00;18.80;67.80
37806;DHT22;25082;50.870;0.022;2023-04-01T13:45:42;18.80;67.90
37806;DHT22;25082;50.870;0.022;2023-04-01T14:04:57;18.80;67.70
37806;DHT22;25082;50.870;0.022;2023-04-01T14:10:14;18.80;67.80
37806;DHT22;25082;50.870;0.022;2023-04-01T14:20:53;18.80;67.70
37806;DHT22;25082;50.870;0.022;2023-04-01T14:26:29;18.80;67.70
37806;DHT22;25082;50.870;0.022;2023-04-01T14:37:23;18.90;67.70
37806;DHT22;25082;50.870;0.022;2023-04-01T14:48:39;18.90;67.60
37806;DHT22;25082;50.870;0.022;2023-04-01T14:51:28;18.90;67.60
37806;DHT22;25082;50.870;0.022;2023-04-01T14:56:41;18.90;67.60
37806;DHT22;25082;50.870;0.022;2023-04-01T14:59:15;19.00;67.70
37806;DHT22;25082;50.870;0.022;2023-04-01T15:04:47;19.00;67.70
37806;DHT22;25082;50.870;0.022;2023-04-01T15:18:34;18.90;67.60
37806;DHT22;25082;50.870;0.022;2023-04-01T15:35:34;18.90;67.60
37806;DHT22;25082;50.870;0.022;2023-04-01T15:40:40;18.90;67.60
37806;DHT22;25082;50.870;0.022;2023-04-01T15:46:51;18.90;67.60
37806;DHT22;25082;50.870;0.022;2023-04-01T16:03:14;19.00;67.60
37806;DHT22;25082;50.870;0.022;2023-04-01T16:11:51;19.10;67.60
37806;DHT22;25082;50.870;0.022;2023-04-01T16:22:23;19.00;67.50
37806;DHT22;25082;50.870;0.022;2023-04-01T16:33:38;19.00;67.80
37806;DHT22;25082;50.870;0.022;2023-04-01T16:41:20;19.00;68.00
37806;DHT22;25082;50.870;0.022;2023-04-01T16:43:59;19.00;68.00
37806;DHT22;25082;50.870;0.022;2023-04-01T16:46:43;19.00;67.70
37806;DHT22;25082;50.870;0.022;2023-04-01T16:51:45;18.90;67.00
37806;DHT22;25082;50.870;0.022;2023-04-01T17:04:57;18.80;67.20
37806;DHT22;25082;50.870;0.022;2023-04-01T17:07:48;18.80;67.20
37806;DHT22;25082;50.870;0.022;2023-04-01T17:18:49;18.80;66.80
37806;DHT22;25082;50.870;0.022;2023-04-01T17:30:47;18.80;67.30
37806;DHT22;25082;50.870;0.022;2023-04-01T17:36:39;18.80;67.40
37806;DHT22;25082;50.870;0.022;2023-04-01T17:42:14;18.80;67.60
37806;DHT22;25082;50.870;0.022;2023-04-01T17:44:49;18.70;67.30
37806;DHT22;25082;50.870;0.022;2023-04-01T17:47:37;18.70;67.40
37806;DHT22;25082;50.870;0.022;2023-04-01T17:58:11;18.70;67.40
37806;DHT22;25082;50.870;0.022;2023-04-01T18:06:19;18.70;67.30
37806;DHT22;25082;50.870;0.022;2023-04-01T18:12:09;18.70;67.20
37806;DHT22;25082;50.870;0.022;2023-04-01T18:25:39;18.60;67.30
37806;DHT22;25082;50.870;0.022;2023-04-01T18:28:30;18.60;67.10
37806;DHT22;25082;50.870;0.022;2023-04-01T18:34:14;18.60;67.10
37806;DHT22;25082;50.870;0.022;2023-04-01T18:39:13;18.60;67.10
37806;DHT22;25082;50.870;0.022;2023-04-01T18:44:50;18.60;67.20
37806;DHT22;25082;50.870;0.022;2023-04-01T18:53:00;18.60;67.00
37806;DHT22;25082;50.870;0.022;2023-04-01T18:56:01;18.60;67.10
37806;DHT22;25082;50.870;0.022;2023-04-01T19:01:28;18.60;67.00
37806;DHT22;25082;50.870;0.022;2023-04-01T19:04:21;18.50;66.60
37806;DHT22;25082;50.870;0.022;2023-04-01T19:06:53;18.50;66.60
37806;DHT22;25082;50.870;0.022;2023-04-01T19:09:27;18.60;66.60
37806;DHT22;25082;50.870;0.022;2023-04-01T19:12:06;18.50;66.60
37806;DHT22;25082;50.870;0.022;2023-04-01T19:15:08;18.50;67.10
37806;DHT22;25082;50.870;0.022;2023-04-01T19:20:37;18.50;66.60
37806;DHT22;25082;50.870;0.022;2023-04-01T19:40:20;18.50;66.40
37806;DHT22;25082;50.870;0.022;2023-04-01T20:00:06;18.60;66.20
37806;DHT22;25082;50.870;0.022;2023-04-01T20:06:07;18.60;66.10
37806;DHT22;25082;50.870;0.022;2023-04-01T20:08:50;18.60;66.10
37806;DHT22;25082;50.870;0.022;2023-04-01T20:20:02;18.70;66.00
37806;DHT22;25082;50.870;0.022;2023-04-01T20:25:02;18.60;65.80
37806;DHT22;25082;50.870;0.022;2023-04-01T20:27:33;18.60;65.80
37806;DHT22;25082;50.870;0.022;2023-04-01T20:30:28;18.60;65.80
37806;DHT22;25082;50.870;0.022;2023-04-01T20:58:28;18.70;65.90
37806;DHT22;25082;50.870;0.022;2023-04-01T21:01:38;18.70;65.90
37806;DHT22;25082;50.870;0.022;2023-04-01T21:04:22;18.70;65.80
37806;DHT22;25082;50.870;0.022;2023-04-01T21:07:12;18.70;66.00
37806;DHT22;25082;50.870;0.022;2023-04-01T21:10:17;18.70;65.90
37806;DHT22;25082;50.870;0.022;2023-04-01T21:12:48;18.80;66.00
37806;DHT22;25082;50.870;0.022;2023-04-01T21:23:49;18.80;65.90
37806;DHT22;25082;50.870;0.022;2023-04-01T21:29:14;18.80;65.90
37806;DHT22;25082;50.870;0.022;2023-04-01T21:31:53;18.80;65.90
37806;DHT22;25082;50.870;0.022;2023-04-01T21:48:25;18.70;65.50
37806;DHT22;25082;50.870;0.022;2023-04-01T22:12:52;18.60;65.40
37806;DHT22;25082;50.870;0.022;2023-04-01T22:18:29;18.60;65.30
37806;DHT22;25082;50.870;0.022;2023-04-01T22:21:15;18.60;65.20
37806;DHT22;25082;50.870;0.022;2023-04-01T22:23:56;18.60;65.20
37806;DHT22;25082;50.870;0.022;2023-04-01T22:26:47;18.60;65.20
37806;DHT22;25082;50.870;0.022;2023-04-01T22:29:31;18.60;65.20
37806;DHT22;25082;50.870;0.022;2023-04-01T22:32:18;18.50;65.10
37806;DHT22;25082;50.870;0.022;2023-04-01T22:37:49;18.50;65.10
37806;DHT22;25082;50.870;0.022;2023-04-01T22:45:54;18.50;65.00
37806;DHT22;25082;50.870;0.022;2023-04-01T22:48:37;18.50;65.00
37806;DHT22;25082;50.870;0.022;2023-04-01T22:51:18;18.50;65.00
37806;DHT22;25082;50.870;0.022;2023-04-01T22:56:46;18.50;65.00
37806;DHT22;25082;50.870;0.022;2023-04-01T22:59:19;18.50;65.10
37806;DHT22;25082;50.870;0.022;2023-04-01T23:04:47;18.40;65.00
37806;DHT22;25082;50.870;0.022;2023-04-01T23:12:47;18.40;65.10
37806;DHT22;25082;50.870;0.022;2023-04-01T23:15:15;18.40;65.10
37806;DHT22;25082;50.870;0.022;2023-04-01T23:23:15;18.40;65.20
37806;DHT22;25082;50.870;0.022;2023-04-01T23:28:55;18.40;65.10
37806;DHT22;25082;50.870;0.022;2023-04-01T23:33:55;18.30;65.00
37806;DHT22;25082;50.870;0.022;2023-04-01T23:36:22;18.30;65.10
37806;DHT22;25082;50.870;0.022;2023-04-01T23:38:48;18.30;65.10
37806;DHT22;25082;50.870;0.022;2023-04-01T23:41:22;18.30;65.10
37806;DHT22;25082;50.870;0.022;2023-04-01T23:44:01;18.30;65.00
37806;DHT22;25082;50.870;0.022;2023-04-01T23:46:29;18.30;65.10
37806;DHT22;25082;50.870;0.022;2023-04-01T23:48:56;18.30;65.10
37806;DHT22;25082;50.870;0.022;2023-04-01T23:52:08;18.30;65.10
37806;DHT22;25082;50.870;0.022;2023-04-01T23:54:49;18.30;65.10
37806;DHT22;25082;50.870;0.022;2023-04-01T23:57:33;18.30;65.10
